Time;durP1;ratioP1;P1;durP2;ratioP2;P2;SDS_P1;SDS_P2;PMS_P1;PMS_P2;Temp;Humidity;BMP_temperature;BMP_pressure;BME280_temperature;BME280_humidity;BME280_pressure;Samples;Min_cycle;Max_cycle;Signal;HPM_P1;HPM_P2
2024/01/31 00:02:23;;;;;;;17.70;17.00;;;7.10;99.90;;;;;;5057427;28;20468;-71
2024/01/31 00:04:50;;;;;;;17.70;17.00;;;7.20;99.90;;;;;;5047062;28;20472;-71
2024/01/31 00:07:17;;;;;;;17.53;16.93;;;7.20;99.90;;;;;;5053801;28;20464;-72
2024/01/31 00:09:44;;;;;;;18.40;17.70;;;7.20;99.90;;;;;;5058468;28;20466;-70
2024/01/31 00:12:11;;;;;;;18.17;17.47;;;7.20;99.90;;;;;;5052005;28;20579;-71
2024/01/31 00:14:38;;;;;;;18.93;18.23;;;7.20;99.90;;;;;;5062554;28;20464;-72
2024/01/31 00:17:05;;;;;;;18.77;18.07;;;7.20;99.90;;;;;;5054679;28;20502;-72
2024/01/31 00:19:33;;;;;;;19.70;18.90;;;7.30;99.90;;;;;;5048673;28;21053;-72
2024/01/31 00:22:01;;;;;;;19.70;18.90;;;7.20;99.90;;;;;;5060973;28;20811;-70
2024/01/31 00:24:30;;;;;;;19.73;18.93;;;7.20;99.90;;;;;;5046891;28;20466;-71
2024/01/31 00:26:56;;;;;;;20.03;19.23;;;7.20;99.90;;;;;;5053287;28;20611;-73
2024/01/31 00:29:23;;;;;;;20.20;19.40;;;7.20;99.90;;;;;;5045742;28;20472;-72
2024/01/31 00:31:50;;;;;;;20.13;19.30;;;7.20;99.90;;;;;;5060319;28;20463;-73
2024/01/31 00:34:17;;;;;;;19.97;19.17;;;7.20;99.90;;;;;;5047587;28;21076;-71
2024/01/31 00:36:45;;;;;;;19.90;19.10;;;7.10;99.90;;;;;;5058069;28;20892;-72
2024/01/31 00:39:12;;;;;;;21.07;20.17;;;7.10;99.90;;;;;;5053316;28;20471;-73
2024/01/31 00:41:39;;;;;;;20.90;20.00;;;7.00;99.90;;;;;;5055768;28;20524;-72
2024/01/31 00:44:06;;;;;;;21.07;20.17;;;7.10;99.90;;;;;;5057762;28;20469;-71
2024/01/31 00:46:33;;;;;;;21.20;20.30;;;7.10;99.90;;;;;;5049756;28;20464;-72
2024/01/31 00:49:01;;;;;;;21.20;20.30;;;7.10;99.90;;;;;;5057857;28;20468;-72
2024/01/31 00:51:28;;;;;;;20.73;19.83;;;7.00;99.90;;;;;;5058598;28;21050;-71
2024/01/31 00:53:56;;;;;;;21.00;20.10;;;7.10;99.90;;;;;;5049772;28;20578;-71
2024/01/31 00:56:23;;;;;;;21.27;20.37;;;7.10;99.90;;;;;;5051049;28;20825;-71
2024/01/31 00:58:50;;;;;;;21.13;20.23;;;7.00;99.90;;;;;;5048755;28;20489;-72
2024/01/31 01:01:17;;;;;;;21.03;20.13;;;7.10;99.90;;;;;;5057486;28;20466;-72
2024/01/31 01:03:44;;;;;;;21.20;20.30;;;7.10;99.90;;;;;;5050381;28;20475;-71
2024/01/31 01:06:12;;;;;;;21.47;20.57;;;7.10;99.90;;;;;;5052015;28;20472;-73
2024/01/31 01:08:39;;;;;;;21.20;20.30;;;7.00;99.90;;;;;;5056564;28;20869;-71
2024/01/31 01:11:08;;;;;;;21.97;21.07;;;7.00;99.90;;;;;;5053225;28;20463;-71
2024/01/31 01:13:34;;;;;;;22.07;21.17;;;7.00;99.90;;;;;;5045215;28;20778;-72
2024/01/31 01:16:02;;;;;;;21.77;20.87;;;7.10;99.90;;;;;;5054062;28;20498;-72
2024/01/31 01:18:30;;;;;;;21.30;20.40;;;7.10;99.90;;;;;;5061535;28;20484;-72
2024/01/31 01:20:56;;;;;;;21.30;20.40;;;7.00;99.90;;;;;;5055867;28;20463;-72
2024/01/31 01:23:24;;;;;;;22.10;21.20;;;7.00;99.90;;;;;;5051785;28;20477;-71
2024/01/31 01:25:51;;;;;;;22.17;21.17;;;7.00;99.90;;;;;;5045142;28;20467;-72
2024/01/31 01:28:19;;;;;;;22.83;21.83;;;7.00;99.90;;;;;;5049343;28;20484;-72
2024/01/31 01:30:46;;;;;;;21.20;20.30;;;7.00;99.90;;;;;;5048930;28;20502;-71
2024/01/31 01:33:12;;;;;;;22.00;21.10;;;7.00;99.90;;;;;;5051635;28;20500;-70
2024/01/31 01:35:39;;;;;;;22.10;21.17;;;7.00;99.90;;;;;;5050049;28;20465;-70
2024/01/31 01:38:06;;;;;;;22.73;21.73;;;7.00;99.90;;;;;;5056523;28;20484;-71
2024/01/31 01:40:33;;;;;;;23.07;22.07;;;6.90;99.90;;;;;;5052630;28;20516;-71
2024/01/31 01:43:01;;;;;;;23.60;22.60;;;7.00;99.90;;;;;;5060005;28;20535;-71
2024/01/31 01:45:30;;;;;;;23.27;22.27;;;6.90;99.90;;;;;;5058570;28;20460;-69
2024/01/31 01:47:57;;;;;;;22.97;21.97;;;6.90;99.90;;;;;;5056054;28;20781;-71
2024/01/31 01:50:25;;;;;;;22.43;21.43;;;6.90;99.90;;;;;;5055491;28;20803;-70
2024/01/31 01:52:54;;;;;;;23.37;22.37;;;6.80;99.90;;;;;;5055342;28;20490;-71
2024/01/31 01:55:21;;;;;;;24.20;23.10;;;6.80;99.90;;;;;;5062654;28;21053;-72
2024/01/31 01:57:48;;;;;;;23.00;22.00;;;6.80;99.90;;;;;;5057128;28;21248;-72
2024/01/31 02:00:17;;;;;;;23.37;22.37;;;6.80;99.90;;;;;;5064278;28;21051;-71
2024/01/31 02:02:45;;;;;;;23.00;22.00;;;6.80;99.90;;;;;;5063221;28;20468;-70
2024/01/31 02:05:14;;;;;;;23.27;22.27;;;6.80;99.90;;;;;;5062009;28;20857;-70
2024/01/31 02:07:41;;;;;;;23.83;22.80;;;6.90;99.90;;;;;;5057856;28;20474;-70
2024/01/31 02:10:09;;;;;;;24.10;23.00;;;6.90;99.90;;;;;;5062609;28;20462;-70
2024/01/31 02:12:36;;;;;;;23.97;22.97;;;6.90;99.90;;;;;;5057990;28;20484;-71
2024/01/31 02:15:03;;;;;;;24.17;23.17;;;6.90;99.90;;;;;;5054550;28;20470;-71
2024/01/31 02:17:33;;;;;;;23.60;22.60;;;6.80;99.90;;;;;;5053024;28;20471;-71
2024/01/31 02:20:02;;;;;;;24.60;23.50;;;6.90;99.90;;;;;;5054743;28;20978;-70
2024/01/31 02:22:31;;;;;;;24.10;23.00;;;6.90;99.90;;;;;;5053071;28;20484;-72
2024/01/31 02:24:59;;;;;;;24.50;23.40;;;7.00;99.90;;;;;;5061976;28;20950;-71
2024/01/31 02:27:26;;;;;;;25.00;23.90;;;6.80;99.90;;;;;;5058996;28;20452;-72
2024/01/31 02:29:53;;;;;;;24.40;23.30;;;6.90;99.90;;;;;;5059400;28;20475;-72
2024/01/31 02:32:21;;;;;;;23.77;22.77;;;6.80;99.90;;;;;;5065447;28;20805;-71
2024/01/31 02:34:48;;;;;;;23.93;22.83;;;6.90;99.90;;;;;;5046399;28;20922;-72
2024/01/31 02:37:16;;;;;;;23.97;22.97;;;6.80;99.90;;;;;;5049942;28;20806;-72
2024/01/31 02:39:44;;;;;;;23.97;22.87;;;6.70;99.90;;;;;;5062237;28;20462;-71
2024/01/31 02:42:11;;;;;;;24.47;23.37;;;6.80;99.90;;;;;;5058912;28;20466;-73
2024/01/31 02:44:38;;;;;;;23.97;22.87;;;6.80;99.90;;;;;;5050060;28;20868;-71
2024/01/31 02:47:04;;;;;;;23.87;22.87;;;6.80;99.90;;;;;;5050699;28;20462;-71
2024/01/31 02:49:33;;;;;;;24.50;23.40;;;6.80;99.90;;;;;;5053109;28;20473;-71
2024/01/31 02:51:59;;;;;;;24.57;23.47;;;6.90;99.90;;;;;;5051877;28;20491;-72
2024/01/31 02:54:26;;;;;;;24.20;23.13;;;6.90;99.90;;;;;;5047682;28;20992;-71
2024/01/31 02:56:54;;;;;;;24.47;23.37;;;6.80;99.90;;;;;;5062701;28;20466;-71
2024/01/31 02:59:22;;;;;;;23.80;22.80;;;6.80;99.90;;;;;;5049780;28;20503;-71
2024/01/31 03:01:50;;;;;;;23.80;22.70;;;6.80;99.90;;;;;;5063170;28;20536;-72
2024/01/31 03:04:18;;;;;;;25.07;23.87;;;6.90;99.90;;;;;;5058912;28;20496;-71
2024/01/31 03:06:44;;;;;;;24.53;23.33;;;6.80;99.90;;;;;;5062222;28;20979;-71
2024/01/31 03:09:12;;;;;;;23.90;22.80;;;6.80;99.90;;;;;;5059154;28;20966;-71
2024/01/31 03:11:39;;;;;;;24.43;23.33;;;6.80;99.90;;;;;;5052972;28;20811;-70
2024/01/31 03:14:08;;;;;;;23.73;22.63;;;7.00;99.90;;;;;;5058529;28;20483;-71
2024/01/31 03:16:39;;;;;;;23.90;22.80;;;7.00;99.90;;;;;;5061375;28;20940;-72
2024/01/31 03:19:06;;;;;;;23.70;22.60;;;6.90;99.90;;;;;;5048148;28;20542;-71
2024/01/31 03:21:33;;;;;;;23.57;22.53;;;6.80;99.90;;;;;;5057642;28;20470;-71
2024/01/31 03:24:00;;;;;;;22.30;21.30;;;6.70;99.90;;;;;;5055140;28;20924;-72
2024/01/31 03:26:27;;;;;;;22.57;21.57;;;6.70;99.90;;;;;;5054118;28;20796;-71
2024/01/31 03:28:55;;;;;;;21.97;21.07;;;6.60;99.90;;;;;;5056877;28;20862;-72
2024/01/31 03:31:23;;;;;;;22.90;21.90;;;6.50;99.90;;;;;;5064808;28;20534;-73
2024/01/31 03:33:50;;;;;;;23.23;22.23;;;6.50;99.90;;;;;;5063545;28;20500;-71
2024/01/31 03:36:17;;;;;;;22.63;21.63;;;6.50;99.90;;;;;;5048074;28;20469;-71
2024/01/31 03:38:44;;;;;;;22.93;21.93;;;6.50;99.90;;;;;;5058729;28;20464;-72
2024/01/31 03:41:11;;;;;;;22.37;21.37;;;6.40;99.90;;;;;;5052533;28;20823;-72
2024/01/31 03:43:38;;;;;;;23.57;22.47;;;6.50;99.90;;;;;;5059099;28;20459;-72
2024/01/31 03:46:06;;;;;;;22.60;21.60;;;6.40;99.90;;;;;;5056837;28;20464;-71
2024/01/31 03:48:34;;;;;;;23.37;22.27;;;6.40;99.90;;;;;;5061931;28;20557;-72
2024/01/31 03:51:01;;;;;;;24.40;23.30;;;6.40;99.90;;;;;;5059510;28;20464;-71
2024/01/31 03:53:28;;;;;;;24.77;23.57;;;6.40;99.90;;;;;;5053608;28;20811;-72
2024/01/31 03:55:55;;;;;;;25.00;23.80;;;6.40;99.90;;;;;;5055115;28;20925;-71
2024/01/31 03:58:22;;;;;;;24.57;23.37;;;6.40;99.90;;;;;;5053520;28;20490;-71
2024/01/31 04:00:49;;;;;;;24.87;23.67;;;6.50;99.90;;;;;;5060708;28;20462;-71
2024/01/31 04:03:20;;;;;;;25.40;24.20;;;6.50;99.90;;;;;;5054979;28;20475;-72
2024/01/31 04:05:48;;;;;;;26.07;24.77;;;6.50;99.90;;;;;;5045153;28;20460;-71
2024/01/31 04:08:15;;;;;;;26.97;25.57;;;6.60;99.90;;;;;;5051710;28;20488;-73
2024/01/31 04:10:42;;;;;;;26.80;25.40;;;6.60;99.90;;;;;;5055215;28;20464;-71
2024/01/31 04:13:09;;;;;;;26.80;25.40;;;6.60;99.90;;;;;;5054322;28;20468;-72
2024/01/31 04:15:38;;;;;;;26.87;25.53;;;6.50;99.90;;;;;;5050755;28;20460;-72
2024/01/31 04:18:04;;;;;;;27.90;26.50;;;6.50;99.90;;;;;;5058034;28;20473;-72
2024/01/31 04:20:32;;;;;;;26.80;25.50;;;6.60;99.90;;;;;;5056349;28;20461;-71
2024/01/31 04:23:00;;;;;;;26.93;25.63;;;6.60;99.90;;;;;;5060364;28;20473;-72
2024/01/31 04:25:28;;;;;;;26.47;25.17;;;6.70;99.90;;;;;;5052805;28;20464;-71
2024/01/31 04:27:55;;;;;;;26.53;25.23;;;6.70;99.90;;;;;;5056447;28;20940;-72
2024/01/31 04:30:22;;;;;;;27.57;26.17;;;6.70;99.90;;;;;;5057468;28;20468;-72
2024/01/31 04:32:49;;;;;;;26.70;25.40;;;6.60;99.90;;;;;;5044692;28;20460;-71
2024/01/31 04:35:16;;;;;;;27.77;26.37;;;6.60;99.90;;;;;;5049270;28;20506;-72
2024/01/31 04:37:43;;;;;;;27.70;26.30;;;6.60;99.90;;;;;;5057980;28;20494;-71
2024/01/31 04:40:26;;;;;;;27.33;25.93;;;6.60;99.90;;;;;;5048422;28;20462;-72
2024/01/31 04:42:54;;;;;;;28.00;26.60;;;6.60;99.90;;;;;;5060324;28;20847;-71
2024/01/31 04:45:21;;;;;;;27.00;25.60;;;6.70;99.90;;;;;;5053856;28;20460;-71
2024/01/31 04:47:48;;;;;;;25.77;24.37;;;6.70;99.90;;;;;;5053228;28;20476;-71
2024/01/31 04:50:15;;;;;;;25.80;24.50;;;6.70;99.90;;;;;;5056358;28;20543;-72
2024/01/31 04:52:42;;;;;;;26.60;25.20;;;6.70;99.90;;;;;;5064715;28;20463;-72
2024/01/31 04:55:09;;;;;;;25.63;24.30;;;6.70;99.90;;;;;;5050029;28;20845;-72
2024/01/31 04:57:39;;;;;;;26.70;25.30;;;6.60;99.90;;;;;;5046311;28;20475;-71
2024/01/31 05:00:08;;;;;;;25.47;24.20;;;6.60;99.90;;;;;;5045870;28;20461;-72
2024/01/31 05:02:34;;;;;;;25.60;24.40;;;6.60;99.90;;;;;;5061659;28;20462;-72
2024/01/31 05:05:02;;;;;;;25.47;24.27;;;6.60;99.90;;;;;;5052515;28;20473;-73
2024/01/31 05:07:29;;;;;;;25.60;24.40;;;6.50;99.90;;;;;;5054271;28;20455;-73
2024/01/31 05:09:56;;;;;;;24.57;23.37;;;6.50;99.90;;;;;;5060936;28;20454;-71
2024/01/31 05:12:23;;;;;;;24.20;23.10;;;6.60;99.90;;;;;;5051508;28;20470;-73
2024/01/31 05:14:51;;;;;;;24.93;23.73;;;6.60;99.90;;;;;;5061543;28;20495;-73
2024/01/31 05:17:18;;;;;;;24.40;23.23;;;6.50;99.90;;;;;;5052795;28;20465;-72
2024/01/31 05:19:45;;;;;;;23.20;22.10;;;6.60;99.90;;;;;;5056304;28;20468;-72
2024/01/31 05:22:14;;;;;;;24.67;23.47;;;6.70;99.90;;;;;;5068506;28;20451;-72
2024/01/31 05:24:42;;;;;;;25.07;23.87;;;6.60;99.90;;;;;;5053487;28;20472;-72
2024/01/31 05:27:10;;;;;;;25.00;23.80;;;6.60;99.90;;;;;;5069200;28;20463;-73
2024/01/31 05:29:38;;;;;;;25.33;24.13;;;6.60;99.90;;;;;;5051985;28;20982;-72
2024/01/31 05:32:07;;;;;;;26.07;24.77;;;6.60;99.90;;;;;;5058813;28;20467;-72
2024/01/31 05:34:34;;;;;;;24.63;23.43;;;6.50;99.90;;;;;;5062926;28;20499;-73
2024/01/31 05:37:01;;;;;;;24.97;23.77;;;6.40;99.90;;;;;;5057683;28;20468;-72
2024/01/31 05:39:28;;;;;;;25.20;24.00;;;6.50;99.90;;;;;;5050060;28;20460;-72
2024/01/31 05:41:55;;;;;;;24.73;23.53;;;6.50;99.90;;;;;;5057072;28;20475;-71
2024/01/31 05:44:22;;;;;;;24.80;23.60;;;6.40;99.90;;;;;;5045925;28;20632;-72
2024/01/31 05:46:49;;;;;;;24.50;23.30;;;6.30;99.90;;;;;;5054281;28;20477;-72
2024/01/31 05:49:18;;;;;;;25.43;24.23;;;6.30;99.90;;;;;;5057240;28;20468;-73
2024/01/31 05:51:44;;;;;;;26.10;24.80;;;6.40;99.90;;;;;;5063286;28;20466;-72
2024/01/31 05:54:13;;;;;;;24.73;23.53;;;6.40;99.90;;;;;;5062092;28;20494;-72
2024/01/31 05:56:41;;;;;;;25.40;24.20;;;6.30;99.90;;;;;;5057934;28;20510;-73
2024/01/31 05:59:08;;;;;;;25.30;24.10;;;6.40;99.90;;;;;;5057799;28;20573;-72
2024/01/31 06:01:35;;;;;;;25.93;24.73;;;6.50;99.90;;;;;;5051227;28;20833;-73
2024/01/31 06:04:03;;;;;;;25.53;24.33;;;6.50;99.90;;;;;;5063326;28;20837;-72
2024/01/31 06:06:32;;;;;;;26.33;25.10;;;6.50;99.90;;;;;;5063970;28;20881;-72
2024/01/31 06:08:59;;;;;;;25.07;23.87;;;6.40;99.90;;;;;;5062864;28;20473;-73
2024/01/31 06:11:26;;;;;;;26.30;25.03;;;6.40;99.90;;;;;;5055246;28;20471;-73
2024/01/31 06:13:53;;;;;;;24.80;23.60;;;6.40;99.90;;;;;;5058330;28;20712;-72
2024/01/31 06:16:19;;;;;;;25.60;24.30;;;6.20;99.90;;;;;;5060746;28;20560;-73
2024/01/31 06:18:47;;;;;;;24.17;22.97;;;6.40;99.90;;;;;;5047832;28;20843;-73
2024/01/31 06:21:15;;;;;;;25.30;24.07;;;6.40;99.90;;;;;;5054266;28;20502;-72
2024/01/31 06:23:43;;;;;;;24.60;23.40;;;6.50;99.90;;;;;;5057245;28;20449;-73
2024/01/31 06:26:09;;;;;;;24.90;23.70;;;6.40;99.90;;;;;;5056077;28;20546;-73
2024/01/31 06:28:38;;;;;;;25.20;24.00;;;6.30;99.90;;;;;;5063262;28;20464;-72
2024/01/31 06:31:14;;;;;;;25.27;24.07;;;6.40;99.90;;;;;;5055557;28;20887;-73
2024/01/31 06:33:42;;;;;;;25.77;24.57;;;6.40;99.90;;;;;;5052220;28;20470;-72
2024/01/31 06:36:09;;;;;;;25.33;24.03;;;6.50;99.90;;;;;;5050758;28;20491;-73
2024/01/31 06:38:36;;;;;;;25.17;23.90;;;6.50;99.90;;;;;;5051276;28;20954;-73
2024/01/31 06:41:04;;;;;;;24.20;23.00;;;6.50;99.90;;;;;;5049944;28;20803;-72
2024/01/31 06:43:31;;;;;;;24.40;23.30;;;6.50;99.90;;;;;;5059863;28;20884;-73
2024/01/31 06:45:58;;;;;;;25.20;24.00;;;6.40;99.90;;;;;;5052336;28;20492;-72
2024/01/31 06:48:25;;;;;;;24.67;23.47;;;6.40;99.90;;;;;;5064218;28;20458;-73
2024/01/31 06:50:53;;;;;;;23.40;22.30;;;6.40;99.90;;;;;;5058522;28;20511;-72
2024/01/31 06:53:19;;;;;;;24.03;22.83;;;6.40;99.90;;;;;;5054425;28;20477;-71
2024/01/31 06:55:46;;;;;;;24.60;23.40;;;6.50;99.90;;;;;;5053137;28;20492;-72
2024/01/31 06:58:15;;;;;;;24.93;23.73;;;6.50;99.90;;;;;;5053708;28;20487;-73
2024/01/31 07:00:43;;;;;;;23.30;22.20;;;6.50;99.90;;;;;;5065869;28;20455;-71
2024/01/31 07:03:11;;;;;;;23.60;22.50;;;6.40;99.90;;;;;;5061309;28;20823;-72
2024/01/31 07:05:38;;;;;;;23.77;22.67;;;6.40;99.90;;;;;;5052185;28;20463;-72
2024/01/31 07:08:06;;;;;;;24.33;23.13;;;6.40;99.90;;;;;;5055583;28;20802;-72
2024/01/31 07:10:33;;;;;;;23.40;22.30;;;6.50;99.90;;;;;;5062402;28;20468;-71
2024/01/31 07:12:59;;;;;;;24.50;23.30;;;6.60;99.90;;;;;;5052353;28;20823;-72
2024/01/31 07:15:27;;;;;;;23.80;22.60;;;6.50;99.90;;;;;;5059524;28;20492;-72
2024/01/31 07:17:55;;;;;;;23.87;22.67;;;6.50;99.90;;;;;;5057966;28;20478;-71
2024/01/31 07:20:22;;;;;;;24.03;22.83;;;6.50;99.90;;;;;;5048104;28;20543;-72
2024/01/31 07:22:49;;;;;;;24.63;23.43;;;6.50;99.90;;;;;;5058108;28;20459;-71
2024/01/31 07:25:17;;;;;;;25.17;23.87;;;6.30;99.90;;;;;;5055568;28;20461;-71
2024/01/31 07:27:45;;;;;;;24.20;23.00;;;6.30;99.90;;;;;;5050484;28;20552;-72
2024/01/31 07:30:12;;;;;;;24.00;22.80;;;6.40;99.90;;;;;;5056909;28;20460;-72
2024/01/31 07:32:41;;;;;;;24.43;23.23;;;6.40;99.90;;;;;;5059819;28;20460;-72
2024/01/31 07:35:09;;;;;;;23.83;22.63;;;6.40;99.90;;;;;;5057147;28;20843;-70
2024/01/31 07:37:36;;;;;;;24.47;23.27;;;6.40;99.90;;;;;;5046710;28;21010;-71
2024/01/31 07:40:06;;;;;;;23.33;22.13;;;6.40;99.90;;;;;;5048014;28;20502;-71
2024/01/31 07:42:33;;;;;;;23.70;22.50;;;6.40;99.90;;;;;;5050754;28;20925;-71
2024/01/31 07:45:00;;;;;;;23.30;22.10;;;6.40;99.90;;;;;;5056497;28;20471;-70
2024/01/31 07:47:28;;;;;;;23.50;22.30;;;6.40;99.90;;;;;;5060102;28;20476;-72
2024/01/31 07:49:57;;;;;;;23.80;22.60;;;6.40;99.90;;;;;;5050520;28;20891;-71
2024/01/31 07:52:24;;;;;;;23.50;22.30;;;6.40;99.90;;;;;;5060351;28;20465;-71
2024/01/31 07:54:52;;;;;;;22.67;21.47;;;6.40;99.90;;;;;;5045614;28;20496;-71
2024/01/31 07:57:20;;;;;;;22.90;21.70;;;6.40;99.90;;;;;;5050770;28;20458;-72
2024/01/31 07:59:47;;;;;;;22.80;21.60;;;6.40;99.90;;;;;;5055894;28;20980;-72
2024/01/31 08:02:14;;;;;;;23.07;21.87;;;6.40;99.90;;;;;;5052290;28;20494;-71
2024/01/31 08:04:42;;;;;;;21.97;20.83;;;6.40;99.90;;;;;;5049752;28;20951;-72
2024/01/31 08:07:12;;;;;;;22.57;21.37;;;6.50;99.90;;;;;;5052865;28;20581;-72
2024/01/31 08:09:40;;;;;;;23.20;22.00;;;6.50;99.90;;;;;;5059865;28;20497;-72
2024/01/31 08:12:07;;;;;;;22.93;21.73;;;6.40;99.90;;;;;;5060337;28;20950;-71
2024/01/31 08:14:34;;;;;;;23.00;21.80;;;6.30;99.90;;;;;;5059768;28;20475;-72
2024/01/31 08:17:01;;;;;;;22.10;20.90;;;6.20;99.90;;;;;;5052077;28;20472;-72
2024/01/31 08:19:30;;;;;;;22.33;21.17;;;6.40;99.90;;;;;;5054308;28;20460;-71
2024/01/31 08:21:57;;;;;;;22.47;21.27;;;6.50;99.90;;;;;;5051451;28;20550;-72
2024/01/31 08:24:25;;;;;;;22.33;21.13;;;6.50;99.90;;;;;;5043306;28;20462;-71
2024/01/31 08:26:52;;;;;;;21.57;20.47;;;6.50;99.90;;;;;;5048464;28;20512;-71
2024/01/31 08:29:19;;;;;;;21.63;20.53;;;6.60;99.90;;;;;;5046155;28;20479;-72
2024/01/31 08:31:46;;;;;;;21.90;20.80;;;6.70;99.90;;;;;;5049973;28;20561;-71
2024/01/31 08:34:14;;;;;;;21.30;20.20;;;6.70;99.90;;;;;;5043933;28;21397;-70
2024/01/31 08:36:41;;;;;;;21.83;20.73;;;6.70;99.90;;;;;;5045677;28;20468;-72
2024/01/31 08:39:08;;;;;;;21.77;20.67;;;6.70;99.90;;;;;;5043741;28;20980;-72
2024/01/31 08:41:37;;;;;;;21.90;20.80;;;6.80;99.90;;;;;;5051961;28;20461;-71
2024/01/31 08:44:04;;;;;;;21.53;20.43;;;6.80;99.90;;;;;;5050771;28;20468;-71
2024/01/31 08:46:31;;;;;;;21.90;20.80;;;6.70;99.90;;;;;;5050684;28;20559;-72
2024/01/31 08:48:58;;;;;;;22.00;20.90;;;6.80;99.90;;;;;;5050477;28;20492;-71
2024/01/31 08:51:24;;;;;;;21.83;20.73;;;6.80;99.90;;;;;;5047890;28;20463;-72
2024/01/31 08:53:52;;;;;;;20.10;19.10;;;6.80;99.90;;;;;;5048588;28;21221;-71
2024/01/31 08:56:19;;;;;;;21.00;20.00;;;6.80;99.90;;;;;;5049771;28;20489;-71
2024/01/31 08:58:47;;;;;;;20.50;19.50;;;6.80;99.90;;;;;;5051430;28;20496;-72
2024/01/31 09:01:14;;;;;;;20.77;19.77;;;6.70;99.90;;;;;;5051251;28;20453;-72
2024/01/31 09:03:41;;;;;;;20.97;19.97;;;6.70;99.90;;;;;;5052938;28;20468;-71
2024/01/31 09:06:08;;;;;;;21.00;20.00;;;6.70;99.90;;;;;;5048853;28;20923;-72
2024/01/31 09:08:35;;;;;;;20.90;19.90;;;6.80;99.90;;;;;;5053571;28;20457;-72
2024/01/31 09:11:02;;;;;;;20.43;19.53;;;6.80;99.90;;;;;;5055478;28;20456;-72
2024/01/31 09:13:29;;;;;;;20.80;19.80;;;6.80;99.90;;;;;;5051679;28;20909;-73
2024/01/31 09:15:57;;;;;;;19.63;18.73;;;6.90;99.90;;;;;;5051718;28;20489;-72
2024/01/31 09:18:24;;;;;;;19.63;18.73;;;7.00;99.90;;;;;;5049321;28;20499;-72
2024/01/31 09:20:51;;;;;;;19.27;18.37;;;7.00;99.90;;;;;;5054233;28;20466;-73
2024/01/31 09:23:18;;;;;;;20.40;19.50;;;7.00;99.90;;;;;;5049758;28;20471;-73
2024/01/31 09:25:45;;;;;;;19.50;18.60;;;7.00;99.90;;;;;;5053245;28;20460;-72
2024/01/31 09:28:12;;;;;;;19.23;18.33;;;7.00;99.90;;;;;;5049193;28;20978;-72
2024/01/31 09:30:39;;;;;;;19.03;18.13;;;7.20;99.90;;;;;;5051570;28;20480;-72
2024/01/31 09:33:08;;;;;;;18.47;17.67;;;7.20;99.90;;;;;;5048953;28;20456;-71
2024/01/31 09:35:34;;;;;;;18.40;17.60;;;7.30;99.90;;;;;;5049349;28;20999;-73
2024/01/31 09:38:02;;;;;;;18.20;17.40;;;7.30;99.90;;;;;;5050158;28;20832;-72
2024/01/31 09:40:30;;;;;;;17.80;17.00;;;7.30;99.90;;;;;;5048849;28;21026;-72
2024/01/31 09:42:57;;;;;;;17.37;16.67;;;7.20;99.90;;;;;;5048616;28;20471;-72
2024/01/31 09:45:27;;;;;;;17.90;17.10;;;7.20;99.90;;;;;;5054002;28;20876;-73
2024/01/31 09:47:57;;;;;;;17.00;16.30;;;7.30;99.90;;;;;;5049335;28;20461;-71
2024/01/31 09:50:25;;;;;;;16.27;15.67;;;7.40;99.90;;;;;;5042095;28;20470;-71
2024/01/31 09:52:53;;;;;;;16.40;15.80;;;7.50;99.90;;;;;;5047410;28;20473;-71
2024/01/31 09:55:23;;;;;;;15.47;14.87;;;7.40;99.90;;;;;;5049148;28;20570;-72
2024/01/31 09:57:50;;;;;;;15.33;14.83;;;7.40;99.90;;;;;;5053235;28;20482;-71
2024/01/31 10:00:18;;;;;;;15.10;14.60;;;7.40;99.90;;;;;;5048987;28;21241;-72
2024/01/31 10:02:48;;;;;;;14.77;14.27;;;7.40;99.90;;;;;;5049460;28;20473;-73
2024/01/31 10:05:15;;;;;;;14.67;14.17;;;7.50;99.90;;;;;;5052422;28;20844;-72
2024/01/31 10:07:43;;;;;;;14.63;14.13;;;7.60;99.90;;;;;;5045229;28;20486;-72
2024/01/31 10:10:10;;;;;;;14.50;14.00;;;7.70;99.90;;;;;;5052270;28;20490;-71
2024/01/31 10:12:38;;;;;;;13.83;13.37;;;7.80;99.90;;;;;;5049613;28;20937;-72
2024/01/31 10:15:09;;;;;;;14.20;13.70;;;7.80;99.90;;;;;;5050364;28;20495;-73
2024/01/31 10:17:36;;;;;;;14.63;14.13;;;8.00;99.90;;;;;;5052608;28;20885;-72
2024/01/31 10:20:10;;;;;;;13.60;13.10;;;8.10;99.90;;;;;;5052377;28;20465;-73
2024/01/31 10:22:37;;;;;;;13.33;12.93;;;8.10;99.90;;;;;;5053190;28;20775;-72
2024/01/31 10:25:07;;;;;;;13.73;13.23;;;8.00;99.90;;;;;;5046731;28;20466;-72
2024/01/31 10:27:35;;;;;;;13.63;13.13;;;8.00;99.90;;;;;;5052127;28;20963;-71
2024/01/31 10:30:05;;;;;;;13.40;13.00;;;8.10;99.90;;;;;;5047101;28;20467;-72
2024/01/31 10:32:34;;;;;;;13.90;13.40;;;8.10;99.90;;;;;;5047510;28;20465;-72
2024/01/31 10:35:02;;;;;;;13.70;13.20;;;8.20;99.90;;;;;;5049208;28;20742;-72
2024/01/31 10:37:31;;;;;;;13.70;13.20;;;8.30;99.90;;;;;;5052298;28;20519;-72
2024/01/31 10:39:59;;;;;;;13.80;13.30;;;8.50;99.90;;;;;;5053117;28;20512;-72
2024/01/31 10:42:27;;;;;;;14.13;13.63;;;8.60;99.90;;;;;;5047666;28;20470;-71
2024/01/31 10:44:54;;;;;;;13.33;12.93;;;8.60;99.90;;;;;;5046537;28;20472;-72
2024/01/31 10:47:21;;;;;;;12.73;12.33;;;8.60;99.90;;;;;;5052585;28;20489;-72
2024/01/31 10:49:48;;;;;;;12.60;12.20;;;8.60;99.90;;;;;;5044974;28;20492;-70
2024/01/31 10:52:19;;;;;;;12.73;12.33;;;8.60;99.90;;;;;;5052547;28;20477;-71
2024/01/31 10:54:49;;;;;;;12.80;12.40;;;8.80;99.90;;;;;;5051065;28;20488;-71
2024/01/31 10:57:16;;;;;;;12.80;12.40;;;8.80;99.90;;;;;;5052757;28;20491;-72
2024/01/31 10:59:45;;;;;;;13.10;12.70;;;8.90;99.90;;;;;;5047590;28;20465;-72
2024/01/31 11:02:15;;;;;;;12.90;12.50;;;9.10;99.90;;;;;;5052411;28;20467;-71
2024/01/31 11:04:43;;;;;;;13.40;12.90;;;9.00;99.90;;;;;;5049734;28;21157;-72
2024/01/31 11:07:17;;;;;;;13.17;12.77;;;9.10;99.90;;;;;;5053479;28;20459;-72
2024/01/31 11:09:45;;;;;;;13.07;12.67;;;9.20;99.90;;;;;;5047648;28;20561;-71
2024/01/31 11:12:13;;;;;;;12.73;12.33;;;9.20;99.90;;;;;;5053096;28;20466;-71
2024/01/31 11:14:41;;;;;;;12.57;12.17;;;9.20;99.90;;;;;;5051411;28;20464;-72
2024/01/31 11:17:12;;;;;;;12.40;12.00;;;9.30;99.90;;;;;;5049660;28;20582;-71
2024/01/31 11:19:42;;;;;;;12.53;12.13;;;9.40;99.90;;;;;;5046854;28;20470;-72
2024/01/31 11:22:09;;;;;;;12.60;12.20;;;9.40;99.90;;;;;;5042756;28;21068;-71
2024/01/31 11:24:43;;;;;;;11.83;11.50;;;9.40;99.90;;;;;;5052641;28;20475;-71
2024/01/31 11:27:09;;;;;;;12.50;12.10;;;9.50;99.90;;;;;;5052213;28;20998;-73
2024/01/31 11:29:36;;;;;;;12.90;12.50;;;9.50;99.90;;;;;;5054228;28;20538;-71
2024/01/31 11:32:04;;;;;;;13.00;12.60;;;9.60;99.90;;;;;;5043691;28;20814;-72
2024/01/31 11:34:33;;;;;;;13.30;12.80;;;9.50;99.90;;;;;;5053568;28;20497;-72
2024/01/31 11:37:15;;;;;;;13.57;13.07;;;9.60;99.90;;;;;;5053338;28;20499;-71
2024/01/31 11:39:42;;;;;;;13.70;13.20;;;9.70;99.90;;;;;;5054846;28;20466;-71
2024/01/31 11:42:09;;;;;;;14.10;13.60;;;9.30;99.90;;;;;;5043701;28;20520;-72
2024/01/31 11:44:51;;;;;;;13.97;13.47;;;9.40;99.90;;;;;;5047510;28;20594;-72
2024/01/31 11:47:18;;;;;;;14.23;13.73;;;9.50;99.90;;;;;;5051767;28;20450;-72
2024/01/31 11:49:47;;;;;;;14.57;14.07;;;9.40;99.90;;;;;;5051847;28;20460;-73
2024/01/31 11:52:14;;;;;;;13.70;13.20;;;9.30;99.90;;;;;;5049042;28;20466;-71
2024/01/31 11:54:41;;;;;;;14.10;13.60;;;9.40;99.90;;;;;;5049011;28;20464;-72
2024/01/31 11:57:08;;;;;;;14.20;13.70;;;9.40;99.90;;;;;;5048659;28;20948;-72
2024/01/31 11:59:35;;;;;;;14.60;14.10;;;9.40;99.90;;;;;;5050195;28;20494;-72
2024/01/31 12:02:02;;;;;;;13.90;13.40;;;9.40;99.90;;;;;;5053243;28;20473;-71
2024/01/31 12:04:30;;;;;;;14.80;14.20;;;9.30;99.90;;;;;;5047320;28;20910;-72
2024/01/31 12:07:06;;;;;;;14.60;14.10;;;9.30;99.90;;;;;;5050100;28;20484;-72
2024/01/31 12:09:34;;;;;;;14.30;13.80;;;9.30;99.90;;;;;;5052724;28;20514;-70
2024/01/31 12:12:00;;;;;;;14.43;13.93;;;9.20;99.90;;;;;;5046870;28;20545;-71
2024/01/31 12:14:28;;;;;;;14.33;13.83;;;9.10;99.90;;;;;;5049183;28;20465;-72
2024/01/31 12:16:54;;;;;;;14.10;13.60;;;9.00;99.90;;;;;;5048260;28;21012;-72
2024/01/31 12:19:23;;;;;;;14.00;13.50;;;9.00;99.90;;;;;;5045237;28;20467;-72
2024/01/31 12:21:50;;;;;;;14.40;13.90;;;9.10;99.90;;;;;;5050879;28;20468;-72
2024/01/31 12:24:18;;;;;;;14.23;13.73;;;9.00;99.90;;;;;;5048241;28;20812;-71
2024/01/31 12:26:45;;;;;;;14.27;13.77;;;8.90;99.90;;;;;;5045640;28;20459;-72
2024/01/31 12:29:13;;;;;;;14.47;13.97;;;8.80;99.90;;;;;;5046935;28;20474;-71
2024/01/31 12:31:39;;;;;;;14.70;14.20;;;8.70;99.90;;;;;;5047881;28;20464;-72
2024/01/31 12:34:06;;;;;;;14.33;13.83;;;8.70;99.90;;;;;;5045426;28;20796;-72
2024/01/31 12:36:33;;;;;;;14.60;14.10;;;8.70;99.90;;;;;;5049785;28;20514;-71
2024/01/31 12:39:00;;;;;;;14.27;13.77;;;8.80;99.90;;;;;;5046021;28;20736;-73